Terminal Aerodrome Forecast
Issued by NWS Lake Charles, LA

Home | Current Version | Previous Version | Text Only | Print | Product List | Glossary On
Versions: 1 2 3 4 5 6 7 8 9 10 11 12 13
630
FTUS44 KLCH 200520
TAFAEX
TAF
KAEX 200520Z 2006/2106 00000KT P6SM BKN250
      TEMPO 2009/2013 5SM BR
     FM201500 12008KT P6SM SCT040
     FM210000 11004KT P6SM FEW050 BKN150=

USA.gov is the U.S. government's official web portal to all federal, state and local government web resources and services.